createdAt,value
2022-08-01T00:00:06.491Z,1.90
2022-08-01T00:02:37.010Z,2.00
2022-08-01T00:05:05.812Z,1.70
2022-08-01T00:07:33.325Z,2.28
2022-08-01T00:10:00.832Z,1.77
2022-08-01T00:12:28.880Z,1.88
2022-08-01T00:14:55.547Z,2.28
2022-08-01T00:17:22.311Z,1.85
2022-08-01T00:19:48.835Z,1.90
2022-08-01T00:22:18.178Z,2.20
2022-08-01T00:24:44.725Z,2.28
2022-08-01T00:27:12.667Z,2.10
2022-08-01T00:30:11.682Z,1.90
2022-08-01T00:32:26.385Z,1.98
2022-08-01T00:34:55.819Z,2.10
2022-08-01T00:37:22.733Z,1.90
2022-08-01T00:39:49.655Z,2.08
2022-08-01T00:42:17.719Z,1.90
2022-08-01T00:44:44.257Z,2.15
2022-08-01T00:47:11.872Z,2.10
2022-08-01T00:49:40.491Z,1.52
2022-08-01T00:52:08.030Z,2.15
2022-08-01T00:54:36.767Z,2.17
2022-08-01T00:57:09.910Z,1.95
2022-08-01T00:59:37.730Z,2.00
2022-08-01T01:02:14.527Z,2.00
2022-08-01T01:04:41.779Z,1.77
2022-08-01T01:07:39.930Z,1.73
2022-08-01T01:10:23.643Z,2.08
2022-08-01T01:12:53.396Z,2.17
2022-08-01T01:15:37.092Z,2.33
2022-08-01T01:18:05.833Z,2.35
2022-08-01T01:20:39.231Z,2.10
2022-08-01T01:23:19.014Z,1.70
2022-08-01T01:26:23.009Z,2.33
2022-08-01T01:29:07.204Z,2.28
2022-08-01T01:31:41.681Z,1.80
2022-08-01T01:34:10.593Z,1.98
2022-08-01T01:36:39.195Z,2.50
2022-08-01T01:39:07.900Z,2.10
2022-08-01T01:41:37.693Z,2.00
2022-08-01T01:44:06.771Z,1.50
2022-08-01T01:46:34.624Z,1.93
2022-08-01T01:49:04.160Z,2.03
2022-08-01T01:51:32.242Z,2.33
2022-08-01T01:54:00.654Z,2.10
2022-08-01T01:56:28.694Z,2.35
2022-08-01T01:59:00.381Z,1.80
2022-08-01T02:01:58.536Z,2.05
2022-08-01T02:04:20.949Z,2.10
2022-08-01T02:06:50.929Z,2.50
2022-08-01T02:09:19.658Z,2.33
2022-08-01T02:12:07.605Z,2.65
2022-08-01T02:14:38.942Z,2.40
2022-08-01T02:17:05.642Z,2.65
2022-08-01T02:19:38.582Z,2.33
2022-08-01T02:22:21.721Z,2.33
2022-08-01T02:25:06.555Z,2.45
2022-08-01T02:27:45.098Z,2.13
2022-08-01T02:30:15.059Z,2.55
2022-08-01T02:32:52.163Z,2.50
2022-08-01T02:35:27.679Z,2.22
2022-08-01T02:37:57.297Z,2.22
2022-08-01T02:40:27.436Z,2.22
2022-08-01T02:42:56.709Z,2.67
2022-08-01T02:45:26.357Z,2.15
2022-08-01T02:48:06.359Z,2.22
2022-08-01T02:53:01.258Z,2.03
2022-08-01T02:55:29.031Z,1.98
2022-08-01T02:58:00.763Z,2.58
2022-08-01T03:00:31.859Z,1.90
2022-08-01T03:03:02.347Z,1.83
2022-08-01T03:05:31.417Z,2.17
2022-08-01T03:08:02.543Z,1.63
2022-08-01T03:10:35.982Z,1.65
2022-08-01T03:13:06.266Z,1.88
2022-08-01T03:15:40.537Z,1.85
2022-08-01T03:18:10.463Z,1.83
2022-08-01T03:23:09.729Z,1.80
2022-08-01T03:25:39.690Z,2.00
2022-08-01T03:30:36.708Z,1.63
2022-08-01T03:33:04.528Z,1.93
2022-08-01T03:35:37.037Z,2.10
2022-08-01T03:38:16.102Z,1.90
2022-08-01T03:41:09.377Z,2.03
2022-08-01T03:43:48.285Z,2.05
2022-08-01T03:46:19.950Z,2.08
2022-08-01T03:48:51.991Z,1.77
2022-08-01T03:51:19.284Z,1.58
2022-08-01T03:53:48.535Z,2.17
2022-08-01T03:56:22.797Z,1.75
2022-08-01T03:58:58.440Z,2.53
2022-08-01T04:01:25.506Z,2.67
2022-08-01T04:03:52.348Z,2.25
2022-08-01T04:06:20.425Z,3.00
2022-08-01T04:08:56.583Z,2.70
2022-08-01T04:11:26.527Z,2.83
2022-08-01T04:13:54.223Z,2.63
2022-08-01T04:16:23.440Z,2.78
2022-08-01T04:18:50.045Z,2.67
2022-08-01T04:21:21.594Z,2.47
2022-08-01T04:23:51.529Z,2.47
2022-08-01T04:26:22.548Z,2.38
2022-08-01T04:28:51.984Z,2.90
2022-08-01T04:31:19.865Z,2.47
2022-08-01T04:33:50.749Z,2.25
2022-08-01T04:36:20.811Z,2.78
2022-08-01T04:38:51.624Z,2.42
2022-08-01T04:41:19.713Z,2.30
2022-08-01T04:43:47.629Z,2.50
2022-08-01T04:46:15.549Z,2.22
2022-08-01T04:48:42.471Z,2.60
2022-08-01T04:51:17.381Z,2.40
2022-08-01T04:53:46.809Z,1.98
2022-08-01T04:56:14.385Z,2.42
2022-08-01T04:58:42.364Z,2.17
2022-08-01T05:01:10.370Z,1.98
2022-08-01T05:03:39.142Z,1.77
2022-08-01T05:06:07.984Z,1.67
2022-08-01T05:08:34.552Z,1.77
2022-08-01T05:11:02.173Z,2.15
2022-08-01T05:13:28.960Z,2.08
2022-08-01T05:15:55.621Z,1.92
2022-08-01T05:18:28.288Z,1.70
2022-08-01T05:20:55.970Z,1.90
2022-08-01T05:23:31.061Z,1.42
2022-08-01T05:26:09.358Z,1.58
2022-08-01T05:28:37.692Z,1.80
2022-08-01T05:31:04.949Z,2.13
2022-08-01T05:33:31.492Z,2.00
2022-08-01T05:35:58.012Z,1.85
2022-08-01T05:38:24.556Z,1.70
2022-08-01T05:40:51.107Z,1.75
2022-08-01T05:43:17.644Z,1.80
2022-08-01T05:45:45.492Z,1.67
2022-08-01T05:48:12.255Z,1.42
2022-08-01T05:50:39.351Z,1.67
2022-08-01T05:53:06.589Z,1.52
2022-08-01T05:55:33.388Z,1.60
2022-08-01T05:58:03.164Z,1.98
2022-08-01T06:00:31.219Z,1.38
2022-08-01T06:02:59.000Z,1.30
2022-08-01T06:05:26.732Z,1.77
2022-08-01T06:07:53.479Z,1.73
2022-08-01T06:10:20.869Z,1.90
2022-08-01T06:12:47.503Z,1.15
2022-08-01T06:15:13.999Z,0.98
2022-08-01T06:17:42.194Z,1.23
2022-08-01T06:20:09.601Z,1.30
2022-08-01T06:22:36.404Z,1.20
2022-08-01T06:25:03.372Z,1.70
2022-08-01T06:27:36.266Z,1.10
2022-08-01T06:30:03.848Z,1.15
2022-08-01T06:32:30.686Z,1.48
2022-08-01T06:34:57.509Z,1.30
2022-08-01T06:37:24.676Z,1.70
2022-08-01T06:39:52.175Z,1.08
2022-08-01T06:42:19.101Z,1.20
2022-08-01T06:44:48.322Z,1.10
2022-08-01T06:49:41.305Z,0.88
2022-08-01T06:52:09.385Z,1.10
2022-08-01T06:54:36.177Z,1.45
2022-08-01T06:57:06.986Z,1.58
2022-08-01T06:59:33.803Z,1.00
2022-08-01T07:02:01.930Z,1.35
2022-08-01T07:04:28.550Z,1.13
2022-08-01T07:06:55.460Z,1.08
2022-08-01T07:09:22.466Z,0.98
2022-08-01T07:11:49.005Z,1.25
2022-08-01T07:14:15.541Z,1.23
2022-08-01T07:16:43.135Z,1.05
2022-08-01T07:19:09.669Z,1.30
2022-08-01T07:21:38.612Z,1.25
2022-08-01T07:24:13.366Z,1.23
2022-08-01T07:26:52.462Z,1.20
2022-08-01T07:29:21.539Z,1.30
2022-08-01T07:31:48.097Z,1.35
2022-08-01T07:34:14.648Z,1.23
2022-08-01T07:36:41.212Z,0.98
2022-08-01T07:39:08.378Z,0.80
2022-08-01T07:42:02.986Z,0.82
2022-08-01T07:44:22.697Z,0.90
2022-08-01T07:46:49.209Z,1.05
2022-08-01T07:49:15.928Z,0.75
2022-08-01T07:51:42.521Z,1.10
2022-08-01T07:54:33.536Z,1.00
2022-08-01T07:57:00.525Z,0.73
2022-08-01T07:59:27.088Z,1.00
2022-08-01T08:01:53.666Z,0.90
2022-08-01T08:04:20.353Z,0.90
2022-08-01T08:06:48.531Z,0.95
2022-08-01T08:09:16.897Z,0.57
2022-08-01T08:11:47.875Z,1.00
2022-08-01T08:14:18.426Z,1.00
2022-08-01T08:16:45.429Z,1.05
2022-08-01T08:19:12.958Z,1.30
2022-08-01T08:21:39.849Z,0.70
2022-08-01T08:24:26.162Z,0.82
2022-08-01T08:27:01.764Z,0.93
2022-08-01T08:29:30.901Z,0.90
2022-08-01T08:31:57.651Z,0.93
2022-08-01T08:34:25.267Z,1.00
2022-08-01T08:36:52.909Z,1.13
2022-08-01T08:39:20.376Z,1.23
2022-08-01T08:41:50.796Z,0.93
2022-08-01T08:44:18.974Z,1.42
2022-08-01T08:49:18.171Z,0.82
2022-08-01T08:51:47.638Z,1.00
2022-08-01T08:54:16.565Z,1.25
2022-08-01T08:56:45.006Z,0.80
2022-08-01T08:59:14.245Z,0.73
2022-08-01T09:01:42.457Z,1.00
2022-08-01T09:04:09.819Z,0.95
2022-08-01T09:06:36.784Z,1.07
2022-08-01T09:09:04.006Z,0.77
2022-08-01T09:11:30.942Z,1.00
2022-08-01T09:14:13.279Z,0.73
2022-08-01T09:16:48.507Z,0.98
2022-08-01T09:19:40.706Z,0.85
2022-08-01T09:22:12.778Z,1.17
2022-08-01T09:24:41.446Z,0.75
2022-08-01T09:27:21.931Z,0.90
2022-08-01T09:30:00.767Z,1.02
2022-08-01T09:32:34.769Z,1.15
2022-08-01T09:35:24.390Z,0.60
2022-08-01T09:38:31.061Z,1.13
2022-08-01T09:41:01.571Z,0.75
2022-08-01T09:43:32.227Z,0.80
2022-08-01T09:45:59.873Z,0.73
2022-08-01T09:48:29.640Z,1.05
2022-08-01T09:51:03.952Z,1.00
2022-08-01T09:53:52.385Z,0.90
2022-08-01T09:56:21.123Z,0.88
2022-08-01T09:59:01.015Z,0.88
2022-08-01T10:01:49.382Z,0.73
2022-08-01T10:06:50.849Z,0.77
2022-08-01T10:09:28.697Z,0.82
2022-08-01T10:12:07.874Z,1.00
2022-08-01T10:14:37.252Z,0.85
2022-08-01T10:19:33.696Z,0.73
2022-08-01T10:22:01.496Z,0.98
2022-08-01T10:24:33.622Z,1.02
2022-08-01T10:27:12.414Z,0.80
2022-08-01T10:30:05.450Z,1.40
2022-08-01T10:32:36.623Z,0.77
2022-08-01T10:35:07.293Z,0.60
2022-08-01T10:37:52.380Z,0.82
2022-08-01T10:40:30.319Z,1.17
2022-08-01T10:42:57.976Z,2.33
2022-08-01T10:45:27.482Z,1.60
2022-08-01T10:48:28.924Z,1.33
2022-08-01T10:50:59.059Z,1.10
2022-08-01T10:53:31.989Z,0.90
2022-08-01T10:56:11.105Z,4.95
2022-08-01T10:58:44.402Z,1.50
2022-08-01T11:01:26.322Z,1.30
2022-08-01T11:04:04.209Z,3.08
2022-08-01T11:06:33.854Z,0.95
2022-08-01T11:09:16.568Z,0.77
2022-08-01T11:12:13.412Z,1.20
2022-08-01T11:15:18.082Z,1.10
2022-08-01T11:17:57.858Z,0.80
2022-08-01T11:20:39.578Z,0.70
2022-08-01T11:23:09.392Z,1.08
2022-08-01T11:26:05.708Z,0.73
2022-08-01T11:28:32.372Z,0.60
2022-08-01T11:31:14.053Z,1.00
2022-08-01T11:33:45.760Z,0.65
2022-08-01T11:36:57.724Z,1.10
2022-08-01T11:39:22.849Z,0.65
2022-08-01T11:41:53.619Z,0.60
2022-08-01T11:44:30.134Z,0.90
2022-08-01T11:47:08.956Z,1.10
2022-08-01T11:49:44.944Z,1.00
2022-08-01T11:52:17.707Z,1.10
2022-08-01T11:57:45.848Z,0.75
2022-08-01T12:00:18.604Z,0.88
2022-08-01T12:02:46.841Z,0.80
2022-08-01T12:05:17.386Z,0.82
2022-08-01T12:07:45.831Z,0.88
2022-08-01T12:12:51.727Z,1.00
2022-08-01T12:15:20.913Z,0.80
2022-08-01T12:17:58.333Z,1.00
2022-08-01T12:20:30.460Z,1.02
2022-08-01T12:22:58.881Z,0.93
2022-08-01T12:25:25.530Z,0.57
2022-08-01T12:27:56.203Z,0.40
2022-08-01T12:30:24.914Z,0.50
2022-08-01T12:35:26.861Z,0.63
2022-08-01T12:37:58.040Z,0.50
2022-08-01T12:40:26.197Z,0.65
2022-08-01T12:42:55.027Z,0.90
2022-08-01T12:45:27.603Z,0.90
2022-08-01T12:47:55.155Z,0.85
2022-08-01T12:50:26.523Z,0.90
2022-08-01T12:52:53.376Z,0.50
2022-08-01T12:55:21.605Z,0.70
2022-08-01T12:58:04.224Z,0.38
2022-08-01T13:00:30.915Z,0.70
2022-08-01T13:03:18.735Z,0.60
2022-08-01T13:05:51.270Z,0.60
2022-08-01T13:08:22.601Z,0.73
2022-08-01T13:10:51.119Z,0.50
2022-08-01T13:16:06.286Z,0.53
2022-08-01T13:18:34.635Z,0.47
2022-08-01T13:21:21.315Z,0.55
2022-08-01T13:24:06.204Z,0.90
2022-08-01T13:26:46.203Z,0.60
2022-08-01T13:29:21.822Z,0.52
2022-08-01T13:31:48.935Z,0.77
2022-08-01T13:34:15.945Z,0.60
2022-08-01T13:36:49.133Z,0.63
2022-08-01T13:39:35.521Z,0.73
2022-08-01T13:42:02.191Z,1.02
2022-08-01T13:44:28.707Z,0.75
2022-08-01T13:46:56.938Z,0.45
2022-08-01T13:49:24.061Z,0.63
2022-08-01T13:51:51.636Z,0.70
2022-08-01T13:54:18.782Z,0.60
2022-08-01T13:56:45.953Z,0.75
2022-08-01T13:59:13.330Z,0.85
2022-08-01T14:01:40.060Z,0.80
2022-08-01T14:04:07.153Z,1.00
2022-08-01T14:06:34.058Z,0.60
2022-08-01T14:09:01.180Z,0.65
2022-08-01T14:11:36.989Z,0.70
2022-08-01T14:14:04.051Z,0.90
2022-08-01T14:16:31.001Z,0.70
2022-08-01T14:18:57.493Z,1.10
2022-08-01T14:21:24.011Z,1.08
2022-08-01T14:23:50.575Z,0.65
2022-08-01T14:26:17.092Z,0.68
2022-08-01T14:28:43.621Z,0.60
2022-08-01T14:31:10.245Z,0.73
2022-08-01T14:34:15.159Z,0.60
2022-08-01T14:36:43.633Z,0.70
2022-08-01T14:39:14.841Z,0.63
2022-08-01T14:41:41.731Z,0.60
2022-08-01T14:44:09.889Z,0.60
2022-08-01T14:46:51.409Z,0.65
2022-08-01T14:49:24.740Z,0.75
2022-08-01T14:51:51.332Z,0.45
2022-08-01T14:54:17.830Z,0.60
2022-08-01T14:56:54.094Z,0.68
2022-08-01T14:59:21.215Z,0.77
2022-08-01T15:01:48.575Z,0.82
2022-08-01T15:04:15.322Z,1.02
2022-08-01T15:06:42.110Z,0.98
2022-08-01T15:09:09.577Z,0.63
2022-08-01T15:11:36.178Z,0.57
2022-08-01T15:14:22.155Z,0.60
2022-08-01T15:16:48.978Z,0.77
2022-08-01T15:19:17.614Z,0.68
2022-08-01T15:21:44.500Z,0.70
2022-08-01T15:24:11.540Z,0.45
2022-08-01T15:26:38.137Z,0.50
2022-08-01T15:29:04.708Z,0.60
2022-08-01T15:31:31.499Z,0.93
2022-08-01T15:33:59.106Z,0.50
2022-08-01T15:36:28.470Z,1.40
2022-08-01T15:38:56.254Z,0.82
2022-08-01T15:41:22.845Z,0.52
2022-08-01T15:43:56.058Z,0.70
2022-08-01T15:46:23.613Z,0.82
2022-08-01T15:48:52.457Z,0.60
2022-08-01T15:51:19.115Z,0.68
2022-08-01T15:53:48.052Z,0.60
2022-08-01T15:56:14.703Z,0.47
2022-08-01T15:58:41.211Z,0.80
2022-08-01T16:01:07.759Z,0.90
2022-08-01T16:03:34.539Z,0.80
2022-08-01T16:06:01.165Z,2.53
2022-08-01T16:08:27.716Z,1.00
2022-08-01T16:10:54.334Z,1.05
2022-08-01T16:13:20.869Z,0.90
2022-08-01T16:15:47.410Z,1.15
2022-08-01T16:18:14.481Z,1.88
2022-08-01T16:20:45.434Z,2.30
2022-08-01T16:23:13.545Z,1.95
2022-08-01T16:25:40.109Z,2.42
2022-08-01T16:28:06.958Z,2.00
2022-08-01T16:30:33.502Z,2.25
2022-08-01T16:33:07.862Z,1.38
2022-08-01T16:35:46.910Z,0.70
2022-08-01T16:38:21.051Z,1.15
2022-08-01T16:40:48.652Z,2.05
2022-08-01T16:43:15.915Z,3.28
2022-08-01T16:45:43.169Z,2.80
2022-08-01T16:48:12.332Z,2.90
2022-08-01T16:50:39.613Z,2.03
2022-08-01T16:53:06.126Z,1.27
2022-08-01T16:55:50.113Z,0.80
2022-08-01T16:58:19.700Z,0.73
2022-08-01T17:00:56.598Z,1.02
2022-08-01T17:03:47.101Z,1.60
2022-08-01T17:06:12.686Z,1.52
2022-08-01T17:08:46.797Z,1.08
2022-08-01T17:11:14.664Z,0.82
2022-08-01T17:13:41.419Z,0.70
2022-08-01T17:16:09.025Z,0.70
2022-08-01T17:18:35.697Z,0.45
2022-08-01T17:21:02.784Z,1.35
2022-08-01T17:23:31.506Z,0.70
2022-08-01T17:25:58.565Z,0.97
2022-08-01T17:28:26.605Z,0.68
2022-08-01T17:30:53.402Z,0.50
2022-08-01T17:33:21.313Z,0.80
2022-08-01T17:35:48.331Z,1.00
2022-08-01T17:38:15.036Z,0.88
2022-08-01T17:40:41.960Z,0.82
2022-08-01T17:43:09.061Z,0.50
2022-08-01T17:45:39.359Z,0.80
2022-08-01T17:48:17.825Z,0.47
2022-08-01T17:50:46.318Z,0.68
2022-08-01T17:53:13.717Z,0.90
2022-08-01T17:55:55.741Z,0.80
2022-08-01T17:58:50.341Z,0.70
2022-08-01T18:01:17.222Z,1.10
2022-08-01T18:03:44.541Z,0.88
2022-08-01T18:06:19.827Z,0.80
2022-08-01T18:08:50.588Z,0.90
2022-08-01T18:11:22.464Z,0.90
2022-08-01T18:13:51.122Z,0.77
2022-08-01T18:16:17.677Z,0.90
2022-08-01T18:18:44.251Z,0.88
2022-08-01T18:21:12.275Z,0.90
2022-08-01T18:23:38.898Z,1.30
2022-08-01T18:26:07.521Z,0.70
2022-08-01T18:28:46.206Z,0.88
2022-08-01T18:31:17.691Z,0.82
2022-08-01T18:33:48.006Z,0.63
2022-08-01T18:36:31.998Z,0.85
2022-08-01T18:39:01.901Z,0.68
2022-08-01T18:41:31.514Z,1.38
2022-08-01T18:44:05.643Z,0.82
2022-08-01T18:46:37.042Z,1.00
2022-08-01T18:49:03.759Z,1.08
2022-08-01T18:51:30.461Z,1.52
2022-08-01T18:53:57.821Z,1.33
2022-08-01T18:56:24.515Z,0.80
2022-08-01T18:58:51.244Z,0.80
2022-08-01T19:01:17.919Z,0.68
2022-08-01T19:03:45.239Z,0.80
2022-08-01T19:06:11.811Z,0.70
2022-08-01T19:08:38.554Z,0.60
2022-08-01T19:11:05.910Z,0.55
2022-08-01T19:13:33.436Z,0.80
2022-08-01T19:16:00.640Z,0.68
2022-08-01T19:18:28.420Z,0.75
2022-08-01T19:20:55.071Z,0.73
2022-08-01T19:23:40.491Z,1.08
2022-08-01T19:26:12.501Z,0.93
2022-08-01T19:28:46.835Z,1.20
2022-08-01T19:31:14.872Z,0.90
2022-08-01T19:33:42.079Z,0.73
2022-08-01T19:36:14.789Z,0.70
2022-08-01T19:38:41.781Z,1.15
2022-08-01T19:41:08.883Z,0.80
2022-08-01T19:43:42.428Z,1.15
2022-08-01T19:46:17.232Z,1.13
2022-08-01T19:48:49.856Z,1.33
2022-08-01T19:51:22.765Z,0.80
2022-08-01T19:54:04.463Z,0.98
2022-08-01T19:56:37.638Z,0.77
2022-08-01T19:59:07.884Z,0.88
2022-08-01T20:01:36.514Z,0.88
2022-08-01T20:04:04.720Z,0.98
2022-08-01T20:06:32.002Z,1.08
2022-08-01T20:08:59.866Z,0.63
2022-08-01T20:11:27.098Z,0.90
2022-08-01T20:13:56.814Z,1.00
2022-08-01T20:16:28.735Z,0.85
2022-08-01T20:18:56.195Z,0.88
2022-08-01T20:21:31.273Z,1.00
2022-08-01T20:24:03.203Z,0.90
2022-08-01T20:26:31.750Z,1.40
2022-08-01T20:28:59.756Z,1.08
2022-08-01T20:31:36.133Z,1.05
2022-08-01T20:34:15.663Z,0.85
2022-08-01T20:36:54.714Z,1.08
2022-08-01T20:39:26.647Z,1.02
2022-08-01T20:41:59.617Z,1.10
2022-08-01T20:44:27.471Z,1.17
2022-08-01T20:46:55.215Z,1.00
2022-08-01T20:49:22.606Z,1.02
2022-08-01T20:51:50.736Z,1.20
2022-08-01T20:54:17.377Z,0.80
2022-08-01T20:57:09.113Z,0.90
2022-08-01T21:00:02.432Z,1.10
2022-08-01T21:02:52.213Z,1.08
2022-08-01T21:05:34.107Z,1.40
2022-08-01T21:08:12.613Z,1.50
2022-08-01T21:10:41.464Z,1.30
2022-08-01T21:13:21.297Z,1.27
2022-08-01T21:16:21.998Z,1.30
2022-08-01T21:19:10.091Z,1.15
2022-08-01T21:21:42.993Z,1.30
2022-08-01T21:24:18.575Z,1.25
2022-08-01T21:26:46.410Z,0.85
2022-08-01T21:29:14.305Z,0.95
2022-08-01T21:31:42.013Z,1.10
2022-08-01T21:34:09.772Z,1.10
2022-08-01T21:36:37.233Z,1.15
2022-08-01T21:39:06.506Z,1.17
2022-08-01T21:42:04.630Z,1.05
2022-08-01T21:44:22.837Z,0.90
2022-08-01T21:46:59.802Z,1.00
2022-08-01T21:49:28.000Z,1.70
2022-08-01T21:52:00.439Z,1.30
2022-08-01T21:54:38.004Z,1.00
2022-08-01T21:57:15.955Z,1.17
2022-08-01T21:59:49.894Z,1.38
2022-08-01T22:02:30.890Z,1.48
2022-08-01T22:05:03.709Z,1.38
2022-08-01T22:07:36.734Z,1.48
2022-08-01T22:10:05.945Z,1.27
2022-08-01T22:12:36.064Z,1.25
2022-08-01T22:15:06.011Z,1.35
2022-08-01T22:20:00.415Z,1.30
2022-08-01T22:22:45.383Z,1.20
2022-08-01T22:25:15.625Z,1.40
2022-08-01T22:28:06.743Z,1.13
2022-08-01T22:30:30.323Z,1.17
2022-08-01T22:33:15.268Z,0.95
2022-08-01T22:35:49.911Z,1.17
2022-08-01T22:38:24.258Z,1.20
2022-08-01T22:41:00.531Z,1.15
2022-08-01T22:43:39.412Z,1.63
2022-08-01T22:46:17.330Z,1.40
2022-08-01T22:48:52.645Z,1.40
2022-08-01T22:51:40.905Z,1.25
2022-08-01T22:54:11.934Z,1.50
2022-08-01T22:56:49.601Z,1.88
2022-08-01T22:59:41.757Z,1.00
2022-08-01T23:02:15.404Z,1.40
2022-08-01T23:04:51.300Z,1.38
2022-08-01T23:07:28.212Z,1.30
2022-08-01T23:09:56.986Z,1.25
2022-08-01T23:12:25.506Z,1.40
2022-08-01T23:14:57.942Z,1.60
2022-08-01T23:17:29.223Z,1.88
2022-08-01T23:19:58.324Z,1.30
2022-08-01T23:22:29.189Z,1.58
2022-08-01T23:25:04.343Z,1.63
2022-08-01T23:27:57.857Z,1.55
2022-08-01T23:30:31.836Z,1.52
2022-08-01T23:32:59.010Z,1.30
2022-08-01T23:35:26.653Z,1.45
2022-08-01T23:38:02.089Z,1.35
2022-08-01T23:40:31.065Z,1.20
2022-08-01T23:42:57.641Z,1.38
2022-08-01T23:45:24.487Z,1.05
2022-08-01T23:47:52.181Z,1.50
2022-08-01T23:50:19.639Z,1.00
2022-08-01T23:52:54.399Z,1.85
2022-08-01T23:55:31.456Z,1.38
2022-08-01T23:58:06.744Z,0.93
